Time;durP1;ratioP1;P1;durP2;ratioP2;P2;SDS_P1;SDS_P2;PMS_P1;PMS_P2;Temp;Humidity;BMP_temperature;BMP_pressure;BME280_temperature;BME280_humidity;BME280_pressure;Samples;Min_cycle;Max_cycle;Signal;HPM_P1;HPM_P2
2021/10/22 00:01:42;;;;;;;2.60;0.70;;;;;;;;;;5053989;28;20056;-88
2021/10/22 00:04:08;;;;;;;1.30;0.30;;;;;;;;;;5052800;28;20040;-88
2021/10/22 00:06:34;;;;;;;0.85;0.38;;;;;;;;;;5054326;28;20120;-89
2021/10/22 00:09:01;;;;;;;8.23;2.38;;;;;;;;;;5055026;28;20040;-88
2021/10/22 00:11:27;;;;;;;4.60;0.90;;;;;;;;;;5057889;28;20036;-88
2021/10/22 00:13:53;;;;;;;2.33;0.68;;;;;;;;;;5057850;28;20067;-88
2021/10/22 00:16:21;;;;;;;1.58;0.40;;;;;;;;;;5058461;28;20040;-86
2021/10/22 00:18:47;;;;;;;1.27;0.30;;;;;;;;;;5056577;28;20044;-88
2021/10/22 00:21:14;;;;;;;3.03;0.60;;;;;;;;;;5056543;28;20033;-88
2021/10/22 00:23:40;;;;;;;6.88;0.95;;;;;;;;;;5056426;28;20056;-87
2021/10/22 00:26:06;;;;;;;26.50;7.50;;;;;;;;;;5056123;28;20112;-88
2021/10/22 00:28:32;;;;;;;6.50;1.27;;;;;;;;;;5056063;28;20469;-89
2021/10/22 00:30:59;;;;;;;22.60;6.40;;;;;;;;;;5056043;28;20025;-88
2021/10/22 00:33:25;;;;;;;9.35;2.13;;;;;;;;;;5056021;28;20025;-87
2021/10/22 00:35:51;;;;;;;2.63;0.60;;;;;;;;;;5056057;28;20025;-88
2021/10/22 00:38:18;;;;;;;7.82;1.45;;;;;;;;;;5055999;28;20017;-87
2021/10/22 00:40:45;;;;;;;1.80;0.63;;;;;;;;;;5055692;28;20060;-87
2021/10/22 00:43:14;;;;;;;7.75;2.33;;;;;;;;;;5056019;28;20082;-88
2021/10/22 00:45:40;;;;;;;4.20;1.02;;;;;;;;;;5055670;28;20021;-88
2021/10/22 00:48:06;;;;;;;2.78;0.50;;;;;;;;;;5055873;28;20123;-88
2021/10/22 00:50:32;;;;;;;6.80;1.70;;;;;;;;;;5055732;28;20028;-88
2021/10/22 00:52:59;;;;;;;8.35;1.90;;;;;;;;;;5056925;28;20032;-87
2021/10/22 00:55:25;;;;;;;2.60;0.70;;;;;;;;;;5055770;28;20056;-88
2021/10/22 00:57:51;;;;;;;7.53;1.05;;;;;;;;;;5055645;28;20025;-88
2021/10/22 01:00:18;;;;;;;3.58;0.50;;;;;;;;;;5055573;28;20029;-88
2021/10/22 01:02:44;;;;;;;1.60;0.70;;;;;;;;;;5055565;28;20029;-88
2021/10/22 01:05:13;;;;;;;3.00;0.60;;;;;;;;;;5055579;28;20032;-88
2021/10/22 01:07:41;;;;;;;1.40;0.40;;;;;;;;;;5055507;28;20453;-88
2021/10/22 01:10:08;;;;;;;2.22;0.55;;;;;;;;;;5055303;28;20033;-89
2021/10/22 01:12:35;;;;;;;6.28;0.85;;;;;;;;;;5055606;28;20025;-88
2021/10/22 01:15:01;;;;;;;4.13;1.23;;;;;;;;;;5055366;28;20535;-88
2021/10/22 01:17:31;;;;;;;3.20;1.08;;;;;;;;;;5055644;28;20029;-86
2021/10/22 01:19:58;;;;;;;5.82;1.25;;;;;;;;;;5054648;28;20394;-88
2021/10/22 01:22:24;;;;;;;2.55;0.77;;;;;;;;;;5055105;28;20021;-87
2021/10/22 01:24:50;;;;;;;3.40;0.90;;;;;;;;;;5054981;28;20371;-88
2021/10/22 01:27:17;;;;;;;1.90;0.60;;;;;;;;;;5054758;28;20068;-88
2021/10/22 01:29:43;;;;;;;3.63;0.68;;;;;;;;;;5054830;28;20079;-88
2021/10/22 01:32:09;;;;;;;2.58;0.45;;;;;;;;;;5054871;28;20029;-88
2021/10/22 01:34:36;;;;;;;2.50;0.60;;;;;;;;;;5056109;28;20025;-88
2021/10/22 01:37:02;;;;;;;3.33;0.68;;;;;;;;;;5056220;28;20355;-87
2021/10/22 01:39:28;;;;;;;3.85;0.68;;;;;;;;;;5055005;28;20036;-88
2021/10/22 01:41:55;;;;;;;1.20;0.43;;;;;;;;;;5054582;28;20025;-88
2021/10/22 01:44:23;;;;;;;2.60;0.55;;;;;;;;;;5054736;28;20063;-87
2021/10/22 01:46:50;;;;;;;2.47;0.60;;;;;;;;;;5058790;28;20025;-86
2021/10/22 01:49:16;;;;;;;2.78;0.70;;;;;;;;;;5064940;28;20037;-88
2021/10/22 01:51:42;;;;;;;3.92;0.88;;;;;;;;;;5063209;28;20025;-89
2021/10/22 01:54:09;;;;;;;4.45;1.00;;;;;;;;;;5060488;28;20032;-86
2021/10/22 01:56:40;;;;;;;2.58;1.30;;;;;;;;;;5068702;28;20044;-86
2021/10/22 01:59:06;;;;;;;2.75;0.73;;;;;;;;;;5063723;28;20422;-87
2021/10/22 02:01:32;;;;;;;3.80;0.75;;;;;;;;;;5055605;28;20035;-89
2021/10/22 02:03:59;;;;;;;3.80;0.80;;;;;;;;;;5054471;28;20025;-88
2021/10/22 02:06:25;;;;;;;4.25;0.70;;;;;;;;;;5054353;28;20029;-88
2021/10/22 02:08:52;;;;;;;1.88;0.65;;;;;;;;;;5054251;28;20029;-89
2021/10/22 02:11:18;;;;;;;1.38;0.60;;;;;;;;;;5055412;28;20109;-89
2021/10/22 02:13:44;;;;;;;3.50;0.40;;;;;;;;;;5055434;28;20490;-89
2021/10/22 02:16:12;;;;;;;2.65;0.77;;;;;;;;;;5054050;28;20111;-88
2021/10/22 02:18:38;;;;;;;3.85;0.70;;;;;;;;;;5057860;28;20029;-89
2021/10/22 02:21:04;;;;;;;8.50;1.95;;;;;;;;;;5053984;28;20033;-89
2021/10/22 02:23:30;;;;;;;3.97;1.40;;;;;;;;;;5054084;28;20032;-88
2021/10/22 02:25:56;;;;;;;2.65;0.80;;;;;;;;;;5054070;28;20036;-89
2021/10/22 02:28:22;;;;;;;2.42;0.70;;;;;;;;;;5053912;28;20084;-90
2021/10/22 02:30:48;;;;;;;4.43;0.88;;;;;;;;;;5053895;28;20174;-89
2021/10/22 02:33:15;;;;;;;4.35;0.65;;;;;;;;;;5052838;28;20025;-89
2021/10/22 02:35:41;;;;;;;4.47;0.60;;;;;;;;;;5053761;28;20025;-88
2021/10/22 02:38:07;;;;;;;3.97;0.82;;;;;;;;;;5053722;28;20029;-89
2021/10/22 02:40:33;;;;;;;5.10;0.60;;;;;;;;;;5055413;28;20032;-89
2021/10/22 02:43:00;;;;;;;5.50;1.00;;;;;;;;;;5053509;28;20029;-89
2021/10/22 02:45:26;;;;;;;2.97;0.68;;;;;;;;;;5054791;28;20047;-89
2021/10/22 02:47:52;;;;;;;2.72;0.57;;;;;;;;;;5053598;28;20025;-89
2021/10/22 02:50:18;;;;;;;1.85;0.45;;;;;;;;;;5054586;28;20033;-89
2021/10/22 02:52:45;;;;;;;2.47;0.40;;;;;;;;;;5053479;28;20068;-89
2021/10/22 02:55:11;;;;;;;2.25;0.40;;;;;;;;;;5053622;28;20032;-89
2021/10/22 02:57:37;;;;;;;1.80;0.30;;;;;;;;;;5053327;28;20023;-89
2021/10/22 03:00:05;;;;;;;3.13;0.40;;;;;;;;;;5053371;28;20478;-88
2021/10/22 03:02:31;;;;;;;1.17;0.30;;;;;;;;;;5054487;28;20029;-89
2021/10/22 03:04:57;;;;;;;0.70;0.20;;;;;;;;;;5054492;28;20021;-88
2021/10/22 03:07:23;;;;;;;1.60;0.30;;;;;;;;;;5054899;28;20569;-89
2021/10/22 03:09:50;;;;;;;2.33;0.40;;;;;;;;;;5053045;28;20033;-89
2021/10/22 03:12:16;;;;;;;1.40;0.30;;;;;;;;;;5054207;28;20106;-89
2021/10/22 03:14:43;;;;;;;1.73;0.50;;;;;;;;;;5053176;28;20474;-89
2021/10/22 03:17:09;;;;;;;1.25;0.30;;;;;;;;;;5053503;28;20032;-89
2021/10/22 03:19:35;;;;;;;1.48;0.47;;;;;;;;;;5052933;28;20029;-89
2021/10/22 03:22:01;;;;;;;5.07;0.68;;;;;;;;;;5052971;28;20075;-89
2021/10/22 03:24:28;;;;;;;4.05;0.60;;;;;;;;;;5054083;28;20032;-89
2021/10/22 03:26:54;;;;;;;2.50;0.80;;;;;;;;;;5052849;28;20045;-89
2021/10/22 03:29:21;;;;;;;3.42;0.60;;;;;;;;;;5052803;28;20028;-89
2021/10/22 03:31:47;;;;;;;4.68;0.65;;;;;;;;;;5054132;28;20482;-89
2021/10/22 03:34:15;;;;;;;2.13;0.65;;;;;;;;;;5053138;28;20029;-89
2021/10/22 03:36:41;;;;;;;4.43;1.83;;;;;;;;;;5053978;28;20096;-88
2021/10/22 03:39:08;;;;;;;3.08;0.93;;;;;;;;;;5052806;28;20391;-89
2021/10/22 03:41:34;;;;;;;4.60;1.13;;;;;;;;;;5054574;28;20025;-88
2021/10/22 03:44:00;;;;;;;2.70;0.73;;;;;;;;;;5052460;28;20470;-89
2021/10/22 03:46:27;;;;;;;2.58;1.08;;;;;;;;;;5053976;28;20100;-89
2021/10/22 03:48:53;;;;;;;1.90;0.52;;;;;;;;;;5052454;28;20033;-88
2021/10/22 03:51:19;;;;;;;11.38;4.22;;;;;;;;;;5052647;28;20127;-89
2021/10/22 03:53:46;;;;;;;18.27;6.30;;;;;;;;;;5052885;28;20474;-89
2021/10/22 03:56:12;;;;;;;7.75;2.35;;;;;;;;;;5052513;28;20036;-88
2021/10/22 03:58:38;;;;;;;14.80;4.95;;;;;;;;;;5052510;28;20025;-88
2021/10/22 04:01:05;;;;;;;6.53;1.85;;;;;;;;;;5052527;28;20460;-89
2021/10/22 04:03:31;;;;;;;8.95;3.40;;;;;;;;;;5054386;28;20021;-89
2021/10/22 04:05:57;;;;;;;3.17;1.00;;;;;;;;;;5053684;28;20029;-88
2021/10/22 04:08:24;;;;;;;4.15;1.35;;;;;;;;;;5052520;28;20029;-89
2021/10/22 04:10:50;;;;;;;10.75;3.53;;;;;;;;;;5052390;28;20073;-89
2021/10/22 04:13:16;;;;;;;10.05;3.78;;;;;;;;;;5052389;28;20429;-90
2021/10/22 04:15:43;;;;;;;12.98;3.92;;;;;;;;;;5052585;28;20074;-90
2021/10/22 04:18:10;;;;;;;13.82;4.40;;;;;;;;;;5053816;28;20017;-89
2021/10/22 04:20:37;;;;;;;10.43;3.97;;;;;;;;;;5053626;28;20079;-89
2021/10/22 04:23:05;;;;;;;13.00;4.93;;;;;;;;;;5052374;28;20143;-90
2021/10/22 04:25:34;;;;;;;9.73;4.03;;;;;;;;;;5052388;28;20029;-89
2021/10/22 04:28:00;;;;;;;7.95;2.47;;;;;;;;;;5052315;28;20041;-89
2021/10/22 04:30:26;;;;;;;4.53;0.95;;;;;;;;;;5053485;28;20036;-89
2021/10/22 04:32:52;;;;;;;3.22;1.23;;;;;;;;;;5052340;28;20105;-89
2021/10/22 04:35:19;;;;;;;2.95;0.80;;;;;;;;;;5052232;28;20099;-89
2021/10/22 04:38:01;;;;;;;3.88;1.20;;;;;;;;;;5053574;28;20029;-89
2021/10/22 04:40:30;;;;;;;2.88;0.70;;;;;;;;;;5052135;28;20100;-89
2021/10/22 04:42:59;;;;;;;4.72;0.60;;;;;;;;;;5052258;28;20057;-89
2021/10/22 04:45:25;;;;;;;1.90;0.43;;;;;;;;;;5052063;28;20057;-89
2021/10/22 04:47:51;;;;;;;4.28;0.63;;;;;;;;;;5052059;28;20527;-89
2021/10/22 04:50:18;;;;;;;11.45;0.98;;;;;;;;;;5052174;28;20545;-89
2021/10/22 04:52:44;;;;;;;1.80;0.50;;;;;;;;;;5052411;28;20021;-89
2021/10/22 04:55:11;;;;;;;3.80;0.90;;;;;;;;;;5052772;28;20033;-89
2021/10/22 04:57:38;;;;;;;4.68;0.73;;;;;;;;;;5055906;28;20116;-89
2021/10/22 05:00:05;;;;;;;3.60;0.70;;;;;;;;;;5055707;28;20033;-89
2021/10/22 05:02:31;;;;;;;3.83;0.77;;;;;;;;;;5055603;28;20390;-89
2021/10/22 05:04:58;;;;;;;1.55;0.57;;;;;;;;;;5055614;28;20029;-89
2021/10/22 05:07:24;;;;;;;0.82;0.30;;;;;;;;;;5055717;28;20499;-88
2021/10/22 05:09:50;;;;;;;3.65;0.75;;;;;;;;;;5056479;28;20040;-89
2021/10/22 05:12:16;;;;;;;3.28;0.70;;;;;;;;;;5055445;28;20025;-88
2021/10/22 05:14:42;;;;;;;2.65;0.68;;;;;;;;;;5055285;28;20113;-88
2021/10/22 05:17:08;;;;;;;1.98;0.77;;;;;;;;;;5055080;28;20029;-86
2021/10/22 05:19:35;;;;;;;2.05;0.57;;;;;;;;;;5055170;28;20029;-89
2021/10/22 05:22:01;;;;;;;4.70;0.45;;;;;;;;;;5055228;28;20071;-88
2021/10/22 05:24:27;;;;;;;2.15;0.80;;;;;;;;;;5055391;28;20017;-88
2021/10/22 05:26:53;;;;;;;4.55;1.38;;;;;;;;;;5054896;28;20583;-89
2021/10/22 05:29:20;;;;;;;4.88;1.15;;;;;;;;;;5054664;28;20021;-84
2021/10/22 05:31:46;;;;;;;3.13;1.05;;;;;;;;;;5054859;28;20036;-88
2021/10/22 05:34:12;;;;;;;6.53;1.70;;;;;;;;;;5054757;28;20029;-89
2021/10/22 05:36:38;;;;;;;2.75;1.02;;;;;;;;;;5054717;28;20021;-84
2021/10/22 05:39:05;;;;;;;5.18;1.33;;;;;;;;;;5054601;28;20460;-86
2021/10/22 05:41:31;;;;;;;3.97;0.82;;;;;;;;;;5054621;28;20025;-85
2021/10/22 05:43:57;;;;;;;5.68;0.70;;;;;;;;;;5054430;28;20029;-87
2021/10/22 05:46:23;;;;;;;1.35;0.50;;;;;;;;;;5054451;28;20082;-90
2021/10/22 05:48:50;;;;;;;4.57;0.70;;;;;;;;;;5054457;28;20108;-88
2021/10/22 05:51:16;;;;;;;3.53;0.77;;;;;;;;;;5054522;28;20086;-87
2021/10/22 05:53:42;;;;;;;3.75;0.73;;;;;;;;;;5054615;28;20021;-88
2021/10/22 05:56:09;;;;;;;2.85;0.80;;;;;;;;;;5056393;28;20021;-89
2021/10/22 05:58:35;;;;;;;1.88;0.70;;;;;;;;;;5055123;28;20021;-91
2021/10/22 06:01:02;;;;;;;5.10;0.80;;;;;;;;;;5054901;28;20025;-90
2021/10/22 06:03:28;;;;;;;4.05;0.85;;;;;;;;;;5056006;28;20108;-89
2021/10/22 06:05:55;;;;;;;5.20;0.68;;;;;;;;;;5055748;28;20019;-90
2021/10/22 06:08:22;;;;;;;2.85;0.90;;;;;;;;;;5054838;28;20083;-91
2021/10/22 06:10:49;;;;;;;3.22;0.73;;;;;;;;;;5053174;28;20047;-87
2021/10/22 06:13:15;;;;;;;2.03;0.60;;;;;;;;;;5056911;28;20056;-88
2021/10/22 06:15:42;;;;;;;4.47;0.90;;;;;;;;;;5034121;28;20449;-87
2021/10/22 06:18:08;;;;;;;3.33;0.75;;;;;;;;;;5034043;28;20462;-91
2021/10/22 06:26:04;;;;;;;3.95;0.60;;;;;;;;;;5035940;28;20453;-89
2021/10/22 06:28:30;;;;;;;2.45;0.70;;;;;;;;;;5035381;28;20049;-90
2021/10/22 06:30:58;;;;;;;2.58;0.60;;;;;;;;;;5034376;28;20034;-90
2021/10/22 06:33:25;;;;;;;2.75;0.60;;;;;;;;;;5034304;28;20104;-90
2021/10/22 06:35:53;;;;;;;2.88;0.60;;;;;;;;;;5035428;28;20040;-90
2021/10/22 06:38:20;;;;;;;2.40;0.60;;;;;;;;;;5034182;28;20021;-90
2021/10/22 06:40:47;;;;;;;2.40;0.80;;;;;;;;;;5034223;28;20029;-91
2021/10/22 06:43:17;;;;;;;2.13;0.60;;;;;;;;;;5034527;28;20021;-90
2021/10/22 06:45:43;;;;;;;3.80;0.80;;;;;;;;;;5035540;28;20029;-90
2021/10/22 06:48:09;;;;;;;5.22;1.02;;;;;;;;;;5034826;28;20390;-89
2021/10/22 06:50:36;;;;;;;4.13;1.17;;;;;;;;;;5036672;28;20092;-90
2021/10/22 06:53:02;;;;;;;3.05;0.65;;;;;;;;;;5033972;28;20029;-91
2021/10/22 06:55:28;;;;;;;3.03;0.80;;;;;;;;;;5035033;28;20025;-91
2021/10/22 06:57:55;;;;;;;3.20;0.60;;;;;;;;;;5034113;28;20021;-91
2021/10/22 07:00:21;;;;;;;3.97;0.65;;;;;;;;;;5033628;28;20021;-91
2021/10/22 07:02:51;;;;;;;1.98;0.45;;;;;;;;;;5033540;28;20063;-89
2021/10/22 07:08:23;;;;;;;2.10;0.90;;;;;;;;;;5032866;28;20079;-91
2021/10/22 07:10:49;;;;;;;2.88;0.80;;;;;;;;;;5016218;28;20075;-92
2021/10/22 07:13:15;;;;;;;3.10;0.77;;;;;;;;;;5023014;28;20034;-92
2021/10/22 07:15:42;;;;;;;5.15;1.30;;;;;;;;;;5033698;28;20032;-92
2021/10/22 07:18:08;;;;;;;3.15;0.50;;;;;;;;;;5033415;28;20029;-93
2021/10/22 07:20:36;;;;;;;10.32;0.55;;;;;;;;;;5033468;28;20124;-91
2021/10/22 07:23:04;;;;;;;8.52;1.27;;;;;;;;;;5033308;28;20083;-92
2021/10/22 07:25:32;;;;;;;5.25;1.38;;;;;;;;;;5033238;28;20071;-92
2021/10/22 07:28:06;;;;;;;1.95;0.50;;;;;;;;;;5033101;28;20060;-93
2021/10/22 07:30:32;;;;;;;2.22;0.50;;;;;;;;;;5033538;28;20030;-93
2021/10/22 07:32:58;;;;;;;2.92;0.43;;;;;;;;;;5033258;28;20025;-92
2021/10/22 07:35:25;;;;;;;2.83;0.50;;;;;;;;;;5033147;28;20025;-92
2021/10/22 07:37:51;;;;;;;1.65;0.55;;;;;;;;;;5033202;28;20168;-92
2021/10/22 07:40:17;;;;;;;2.40;0.40;;;;;;;;;;5033422;28;20109;-91
2021/10/22 07:42:44;;;;;;;1.63;0.40;;;;;;;;;;5033419;28;20034;-93
2021/10/22 07:45:10;;;;;;;1.02;0.40;;;;;;;;;;5033500;28;20527;-92
2021/10/22 07:47:37;;;;;;;3.88;0.57;;;;;;;;;;5033418;28;20026;-92
2021/10/22 07:50:07;;;;;;;1.85;0.50;;;;;;;;;;5036845;28;20048;-94
2021/10/22 07:52:34;;;;;;;1.35;0.40;;;;;;;;;;5034319;28;20101;-89
2021/10/22 07:55:00;;;;;;;3.63;0.60;;;;;;;;;;5032897;28;20033;-91
2021/10/22 07:57:29;;;;;;;1.30;0.40;;;;;;;;;;5038231;28;20053;-87
2021/10/22 07:59:57;;;;;;;2.30;0.40;;;;;;;;;;5035031;28;20040;-87
2021/10/22 08:02:23;;;;;;;2.35;0.50;;;;;;;;;;5032948;28;20434;-90
2021/10/22 08:04:51;;;;;;;1.95;0.50;;;;;;;;;;5032817;28;20440;-88
2021/10/22 08:07:18;;;;;;;6.85;0.85;;;;;;;;;;5032736;28;20360;-92
2021/10/22 08:09:46;;;;;;;5.43;0.57;;;;;;;;;;5033775;28;20052;-87
2021/10/22 08:12:13;;;;;;;5.70;0.50;;;;;;;;;;5035278;28;20100;-90
2021/10/22 08:14:41;;;;;;;1.65;0.28;;;;;;;;;;5032518;28;20034;-91
2021/10/22 08:17:07;;;;;;;1.48;0.50;;;;;;;;;;5032296;28;20018;-91
2021/10/22 08:19:33;;;;;;;2.95;0.50;;;;;;;;;;5033907;28;20033;-90
2021/10/22 08:24:32;;;;;;;;;;;;;;;;;;5034918;28;20064;-91
2021/10/22 08:26:59;;;;;;;4.80;0.50;;;;;;;;;;5032094;28;19917;-90
2021/10/22 08:29:25;;;;;;;2.30;0.40;;;;;;;;;;5033441;28;20462;-93
2021/10/22 08:31:51;;;;;;;1.55;0.40;;;;;;;;;;5035603;28;20113;-90
2021/10/22 08:34:18;;;;;;;4.50;0.50;;;;;;;;;;5036142;28;20030;-90
2021/10/22 08:36:44;;;;;;;1.00;0.40;;;;;;;;;;5035770;28;20029;-90
2021/10/22 08:39:11;;;;;;;0.82;0.30;;;;;;;;;;5035855;28;20025;-89
2021/10/22 08:41:38;;;;;;;1.55;0.32;;;;;;;;;;5035701;28;20037;-89
2021/10/22 08:44:04;;;;;;;2.33;0.50;;;;;;;;;;5035929;28;20030;-90
2021/10/22 08:46:32;;;;;;;1.10;0.35;;;;;;;;;;5036887;28;20025;-89
2021/10/22 08:48:59;;;;;;;1.58;0.40;;;;;;;;;;5035737;28;20111;-90
2021/10/22 08:51:26;;;;;;;1.77;0.50;;;;;;;;;;5035827;28;20025;-90
2021/10/22 08:53:52;;;;;;;4.30;0.55;;;;;;;;;;5035685;28;20025;-91
2021/10/22 08:56:20;;;;;;;1.55;0.25;;;;;;;;;;5035621;28;20138;-90
2021/10/22 08:58:46;;;;;;;2.35;0.40;;;;;;;;;;5035591;28;20117;-91
2021/10/22 09:01:12;;;;;;;1.92;0.40;;;;;;;;;;5035542;28;20029;-91
2021/10/22 09:03:39;;;;;;;4.70;0.60;;;;;;;;;;5037176;28;20114;-91
2021/10/22 09:06:12;;;;;;;3.35;0.30;;;;;;;;;;5035377;28;20029;-91
2021/10/22 09:08:41;;;;;;;5.45;0.60;;;;;;;;;;5036571;28;20044;-91
2021/10/22 09:11:19;;;;;;;1.08;0.20;;;;;;;;;;5037007;28;20021;-90
2021/10/22 09:13:59;;;;;;;1.90;0.40;;;;;;;;;;5035456;28;20482;-90
2021/10/22 09:16:25;;;;;;;2.03;0.40;;;;;;;;;;5035269;28;20080;-89
2021/10/22 09:18:52;;;;;;;2.97;0.30;;;;;;;;;;5036903;28;20021;-89
2021/10/22 09:21:26;;;;;;;2.55;0.45;;;;;;;;;;5035765;28;20040;-90
2021/10/22 09:23:53;;;;;;;4.28;0.50;;;;;;;;;;5035140;28;20025;-89
2021/10/22 09:26:21;;;;;;;1.90;0.40;;;;;;;;;;5036468;28;20132;-91
2021/10/22 09:28:48;;;;;;;30.00;2.42;;;;;;;;;;5035202;28;20375;-91
2021/10/22 09:31:16;;;;;;;1.92;0.50;;;;;;;;;;5035034;28;20017;-91
2021/10/22 09:33:56;;;;;;;3.05;0.47;;;;;;;;;;5034968;28;20029;-90
2021/10/22 09:36:35;;;;;;;0.90;0.28;;;;;;;;;;5036049;28;20068;-91
2021/10/22 09:39:18;;;;;;;1.33;0.40;;;;;;;;;;5034795;28;20032;-91
2021/10/22 09:42:00;;;;;;;1.05;0.40;;;;;;;;;;5034337;28;20041;-88
2021/10/22 09:44:26;;;;;;;;;;;;;;;;;;5035445;28;20044;-92
2021/10/22 09:47:04;;;;;;;1.23;0.40;;;;;;;;;;5035336;28;19944;-91
2021/10/22 09:49:45;;;;;;;6.80;0.38;;;;;;;;;;5035025;28;20047;-91
2021/10/22 09:52:19;;;;;;;2.03;0.60;;;;;;;;;;5034916;28;20025;-90
2021/10/22 09:54:47;;;;;;;3.22;0.30;;;;;;;;;;5034971;28;20021;-91
2021/10/22 09:57:15;;;;;;;0.52;0.25;;;;;;;;;;5034973;28;20033;-92
2021/10/22 09:59:42;;;;;;;2.38;0.30;;;;;;;;;;5035920;28;20030;-89
2021/10/22 10:02:10;;;;;;;1.30;0.45;;;;;;;;;;5034882;28;20021;-89
2021/10/22 10:04:37;;;;;;;3.33;0.40;;;;;;;;;;5034897;28;20034;-89
2021/10/22 10:07:04;;;;;;;1.27;0.40;;;;;;;;;;5035983;28;20025;-89
2021/10/22 10:09:31;;;;;;;7.18;1.00;;;;;;;;;;5034708;28;20057;-89
2021/10/22 10:11:58;;;;;;;3.47;0.50;;;;;;;;;;5034412;28;20542;-89
2021/10/22 10:14:27;;;;;;;1.05;0.28;;;;;;;;;;5034564;28;20105;-91
2021/10/22 10:16:54;;;;;;;4.68;0.40;;;;;;;;;;5034541;28;20164;-90
2021/10/22 10:19:28;;;;;;;1.70;0.63;;;;;;;;;;5035547;28;20022;-90
2021/10/22 10:21:56;;;;;;;1.35;0.40;;;;;;;;;;5034730;28;20029;-90
2021/10/22 10:24:28;;;;;;;1.63;0.30;;;;;;;;;;5034395;28;20104;-88
2021/10/22 10:27:05;;;;;;;0.82;0.20;;;;;;;;;;5035152;28;20050;-89
2021/10/22 10:29:32;;;;;;;2.35;0.30;;;;;;;;;;5034321;28;20034;-89
2021/10/22 10:32:00;;;;;;;1.27;0.30;;;;;;;;;;5034063;28;20056;-89
2021/10/22 10:34:45;;;;;;;0.80;0.30;;;;;;;;;;5034152;28;20474;-89
2021/10/22 10:37:22;;;;;;;1.40;0.40;;;;;;;;;;5034083;28;20032;-89
2021/10/22 10:39:49;;;;;;;1.52;0.30;;;;;;;;;;5033917;28;20040;-89
2021/10/22 10:42:16;;;;;;;1.45;0.40;;;;;;;;;;5033926;28;20032;-89
2021/10/22 10:44:45;;;;;;;1.10;0.20;;;;;;;;;;5034192;28;20029;-89
2021/10/22 10:47:27;;;;;;;1.63;0.30;;;;;;;;;;5033813;28;20116;-89
2021/10/22 10:49:53;;;;;;;3.70;0.47;;;;;;;;;;5033895;28;20037;-89
2021/10/22 10:52:41;;;;;;;1.70;0.28;;;;;;;;;;5033528;28;20036;-89
2021/10/22 10:55:27;;;;;;;0.60;0.20;;;;;;;;;;5033038;28;20120;-88
2021/10/22 10:58:13;;;;;;;2.53;0.50;;;;;;;;;;5033575;28;20097;-89
2021/10/22 11:00:46;;;;;;;2.08;0.32;;;;;;;;;;5033368;28;20486;-88
2021/10/22 11:03:15;;;;;;;0.50;0.20;;;;;;;;;;5034741;28;20057;-88
2021/10/22 11:08:23;;;;;;;1.38;0.25;;;;;;;;;;5034587;28;20383;-88
2021/10/22 11:11:14;;;;;;;1.30;0.40;;;;;;;;;;5033423;28;20029;-89
2021/10/22 11:13:59;;;;;;;1.17;0.30;;;;;;;;;;5035061;28;20032;-88
2021/10/22 11:16:31;;;;;;;1.15;0.30;;;;;;;;;;5033007;28;20014;-88
2021/10/22 11:19:15;;;;;;;1.10;0.30;;;;;;;;;;5033254;28;20033;-88
2021/10/22 11:22:07;;;;;;;1.77;0.55;;;;;;;;;;5033111;28;20034;-88
2021/10/22 11:24:34;;;;;;;1.88;0.35;;;;;;;;;;5033839;28;20041;-88
2021/10/22 11:27:05;;;;;;;1.23;0.30;;;;;;;;;;5032717;28;20125;-88
2021/10/22 11:29:33;;;;;;;0.85;0.30;;;;;;;;;;5033259;28;20028;-88
2021/10/22 11:32:00;;;;;;;1.15;0.38;;;;;;;;;;5032801;28;20049;-87
2021/10/22 11:34:30;;;;;;;1.52;0.20;;;;;;;;;;5032766;28;20083;-88
2021/10/22 11:37:00;;;;;;;1.33;0.20;;;;;;;;;;5032700;28;20021;-88
2021/10/22 11:39:31;;;;;;;0.70;0.30;;;;;;;;;;5032653;28;20036;-87
2021/10/22 11:42:07;;;;;;;0.98;0.30;;;;;;;;;;5032662;28;20035;-88
2021/10/22 11:44:34;;;;;;;1.98;0.40;;;;;;;;;;5032911;28;20077;-88
2021/10/22 11:47:01;;;;;;;4.28;0.30;;;;;;;;;;5032619;28;20029;-88
2021/10/22 11:49:28;;;;;;;1.20;0.30;;;;;;;;;;5032454;28;20456;-88
2021/10/22 11:51:55;;;;;;;1.73;0.40;;;;;;;;;;5033699;28;20025;-88
2021/10/22 11:54:23;;;;;;;1.60;0.20;;;;;;;;;;5032524;28;20036;-88
2021/10/22 11:56:50;;;;;;;1.10;0.30;;;;;;;;;;5032530;28;20108;-88
2021/10/22 11:59:18;;;;;;;1.50;0.30;;;;;;;;;;5032341;28;20137;-88
2021/10/22 12:01:45;;;;;;;1.45;0.30;;;;;;;;;;5032478;28;20036;-88
2021/10/22 12:04:24;;;;;;;2.30;0.25;;;;;;;;;;5034546;28;20104;-88
2021/10/22 12:06:51;;;;;;;2.28;0.77;;;;;;;;;;5036550;28;20061;-88
2021/10/22 12:09:17;;;;;;;2.40;0.73;;;;;;;;;;5036537;28;20022;-88
2021/10/22 12:12:01;;;;;;;2.65;0.30;;;;;;;;;;5037853;28;20064;-88
2021/10/22 12:14:34;;;;;;;0.80;0.30;;;;;;;;;;5036725;28;20025;-88
2021/10/22 12:17:03;;;;;;;3.67;0.28;;;;;;;;;;5036434;28;20040;-88
2021/10/22 12:19:31;;;;;;;0.98;0.30;;;;;;;;;;5036379;28;20033;-88
2021/10/22 12:21:57;;;;;;;1.65;0.20;;;;;;;;;;5037571;28;20108;-88
2021/10/22 12:24:24;;;;;;;1.02;0.30;;;;;;;;;;5036239;28;20386;-88
2021/10/22 12:27:05;;;;;;;0.80;0.20;;;;;;;;;;5037105;28;20538;-89
2021/10/22 12:29:46;;;;;;;1.77;0.38;;;;;;;;;;5036246;28;20061;-88
2021/10/22 12:32:27;;;;;;;1.95;0.28;;;;;;;;;;5037361;28;20029;-88
2021/10/22 12:34:54;;;;;;;1.17;0.30;;;;;;;;;;5037938;28;20558;-88
2021/10/22 12:37:30;;;;;;;0.65;0.20;;;;;;;;;;5037246;28;20029;-88
2021/10/22 12:39:57;;;;;;;1.77;0.40;;;;;;;;;;5035978;28;20034;-88
2021/10/22 12:42:24;;;;;;;1.40;0.40;;;;;;;;;;5035947;28;20030;-89
2021/10/22 12:44:50;;;;;;;1.30;0.38;;;;;;;;;;5035823;28;20053;-87
2021/10/22 12:47:17;;;;;;;0.95;0.30;;;;;;;;;;5035844;28;20391;-88
2021/10/22 12:49:50;;;;;;;0.93;0.22;;;;;;;;;;5036931;28;20035;-88
2021/10/22 12:52:16;;;;;;;0.80;0.28;;;;;;;;;;5035759;28;20029;-88
2021/10/22 12:54:46;;;;;;;1.27;0.47;;;;;;;;;;5035736;28;20458;-88
2021/10/22 12:57:22;;;;;;;1.35;0.40;;;;;;;;;;5035730;28;20437;-88
2021/10/22 12:59:51;;;;;;;0.80;0.35;;;;;;;;;;5035661;28;20037;-88
2021/10/22 13:02:27;;;;;;;1.70;0.40;;;;;;;;;;5035613;28;20025;-88
2021/10/22 13:05:17;;;;;;;1.50;0.52;;;;;;;;;;5035551;28;20030;-88
2021/10/22 13:08:34;;;;;;;1.23;0.45;;;;;;;;;;5035546;28;20108;-88
2021/10/22 13:11:05;;;;;;;1.98;0.40;;;;;;;;;;5036713;28;20104;-88
2021/10/22 13:21:47;;;;;;;2.45;0.43;;;;;;;;;;5036365;28;20091;-88
2021/10/22 13:24:13;;;;;;;1.85;0.50;;;;;;;;;;5035141;28;20387;-88
2021/10/22 13:26:41;;;;;;;1.30;0.28;;;;;;;;;;5036506;28;20053;-88
2021/10/22 13:29:14;;;;;;;1.58;0.68;;;;;;;;;;5035095;28;20017;-87
2021/10/22 13:31:51;;;;;;;2.00;0.88;;;;;;;;;;5036418;28;20075;-88
2021/10/22 13:34:18;;;;;;;2.67;0.65;;;;;;;;;;5035024;28;20025;-88
2021/10/22 13:36:44;;;;;;;2.70;0.70;;;;;;;;;;5035436;28;20124;-88
2021/10/22 13:39:12;;;;;;;2.70;0.55;;;;;;;;;;5034940;28;20025;-90
2021/10/22 13:41:38;;;;;;;1.08;0.35;;;;;;;;;;5035097;28;20060;-88
2021/10/22 13:44:05;;;;;;;3.40;0.40;;;;;;;;;;5034955;28;20037;-88
2021/10/22 13:46:32;;;;;;;1.65;0.50;;;;;;;;;;5035896;28;20095;-88
2021/10/22 13:48:59;;;;;;;2.83;0.75;;;;;;;;;;5034719;28;20029;-88
2021/10/22 13:51:25;;;;;;;1.70;0.60;;;;;;;;;;5035071;28;20036;-88
2021/10/22 13:53:53;;;;;;;1.95;0.50;;;;;;;;;;5034662;28;20029;-89
2021/10/22 13:56:19;;;;;;;1.42;0.40;;;;;;;;;;5034665;28;20025;-89
2021/10/22 13:58:46;;;;;;;1.00;0.45;;;;;;;;;;5036381;28;20053;-88
2021/10/22 14:01:12;;;;;;;2.65;0.43;;;;;;;;;;5036265;28;20087;-88
2021/10/22 14:03:39;;;;;;;1.27;0.47;;;;;;;;;;5034622;28;20120;-89
2021/10/22 14:06:06;;;;;;;3.13;0.68;;;;;;;;;;5034393;28;20029;-88
2021/10/22 14:08:35;;;;;;;2.75;0.60;;;;;;;;;;5034561;28;20026;-88
2021/10/22 14:11:15;;;;;;;1.65;0.50;;;;;;;;;;5034308;28;20065;-88
2021/10/22 14:13:57;;;;;;;1.80;0.50;;;;;;;;;;5034396;28;20120;-88
2021/10/22 14:16:37;;;;;;;1.95;0.60;;;;;;;;;;5034317;28;20574;-89
2021/10/22 14:24:34;;;;;;;1.92;0.50;;;;;;;;;;5036183;28;20443;-88
2021/10/22 14:29:46;;;;;;;3.88;0.50;;;;;;;;;;5035521;28;20076;-88
2021/10/22 14:32:13;;;;;;;4.97;0.50;;;;;;;;;;5033854;28;20037;-88
2021/10/22 14:34:40;;;;;;;2.15;0.63;;;;;;;;;;5033660;28;20132;-88
2021/10/22 14:37:06;;;;;;;2.17;0.90;;;;;;;;;;5034947;28;20025;-88
2021/10/22 14:39:33;;;;;;;3.88;0.80;;;;;;;;;;5035314;28;20534;-88
2021/10/22 14:42:03;;;;;;;5.18;0.40;;;;;;;;;;5034809;28;20029;-88
2021/10/22 14:44:36;;;;;;;3.22;0.50;;;;;;;;;;5033566;28;20026;-88
2021/10/22 14:49:42;;;;;;;1.27;0.40;;;;;;;;;;5035568;28;20120;-88
2021/10/22 14:54:36;;;;;;;2.25;0.40;;;;;;;;;;5034717;28;19911;-88
2021/10/22 14:57:03;;;;;;;3.55;0.70;;;;;;;;;;5033892;28;20030;-88
2021/10/22 14:59:32;;;;;;;2.97;0.40;;;;;;;;;;5033173;28;20037;-88
2021/10/22 15:02:04;;;;;;;3.97;0.65;;;;;;;;;;5033492;28;20068;-88
2021/10/22 15:04:31;;;;;;;2.55;0.63;;;;;;;;;;5033384;28;20390;-88
2021/10/22 15:06:58;;;;;;;1.27;0.57;;;;;;;;;;5033288;28;20025;-88
2021/10/22 15:09:24;;;;;;;4.93;1.10;;;;;;;;;;5033298;28;20029;-90
2021/10/22 15:11:50;;;;;;;3.80;0.88;;;;;;;;;;5033417;28;20029;-88
2021/10/22 15:14:16;;;;;;;3.17;0.80;;;;;;;;;;5033371;28;20041;-89
2021/10/22 15:16:43;;;;;;;1.95;0.40;;;;;;;;;;5033600;28;20026;-89
2021/10/22 15:19:09;;;;;;;5.88;0.63;;;;;;;;;;5033400;28;20021;-88
2021/10/22 15:21:36;;;;;;;5.70;0.85;;;;;;;;;;5033749;28;20026;-89
2021/10/22 15:24:06;;;;;;;3.03;0.77;;;;;;;;;;5033394;28;20025;-89
2021/10/22 15:26:32;;;;;;;3.75;0.75;;;;;;;;;;5033295;28;20025;-91